Toyama Airport

Airport
ICAO code: 
RJNT
IATA Code: 
TOY
Summary
ICAO Region: 
APAC
Territory: 
Location: 
Toyama, Toyama Prefecture
Serving: 
Toyama
Elevation: 
127 ft
Coordinates: 
Aerial View: 
36° 38' 37.663" N, 137° 11' 22.232" E
Metar
Observation
RJNT 190200Z 18003KT 9999 FEW020 BKN050 BKN070 02/M02 Q1020
Station
Toyama Airport
Date/Time
2022-01-19 02:00:00
Wind direction
180°
Wind speed
03 kts
Lowest cloud amount
few clouds
Temperature
2°C
Dew point
-2°C
Humidity
74%
QNH
1020 hPa
Weather condition
n/a

Toyama Airport is an airport located 3 nm south southwest of Toyama City, Toyama Prefecture, Japan.

Climatology

Humid Sub-tropical climate (Köppen climate classification Cfa)

Runways

Designator Length Width Surface Rops
2/20 2000 46 ASP Yes/Yes
Airport map: 
Aerial View: 

SKYbrary Partners:

Safety knowledge contributed by: